Time;durP1;ratioP1;P1;durP2;ratioP2;P2;SDS_P1;SDS_P2;PMS_P1;PMS_P2;Temp;Humidity;BMP_temperature;BMP_pressure;BME280_temperature;BME280_humidity;BME280_pressure;Samples;Min_cycle;Max_cycle;Signal;HPM_P1;HPM_P2
2021/10/01 00:00:15;;;;;;;2.92;0.90;;;13.30;90.80;;;;;;5027309;28;20028;-77
2021/10/01 00:02:41;;;;;;;2.35;1.00;;;13.20;90.90;;;;;;5012797;28;20030;-75
2021/10/01 00:05:08;;;;;;;1.13;0.77;;;13.20;91.00;;;;;;5012099;28;20087;-75
2021/10/01 00:07:33;;;;;;;2.28;0.82;;;13.10;90.90;;;;;;5011343;28;20022;-75
2021/10/01 00:09:59;;;;;;;3.28;0.70;;;13.10;91.00;;;;;;5011993;28;20026;-75
2021/10/01 00:12:25;;;;;;;1.42;0.80;;;13.10;91.00;;;;;;5028057;28;20029;-75
2021/10/01 00:14:51;;;;;;;2.60;0.90;;;13.10;91.00;;;;;;5012927;28;20052;-75
2021/10/01 00:17:17;;;;;;;1.15;0.80;;;13.10;91.00;;;;;;5011936;28;20651;-75
2021/10/01 00:19:43;;;;;;;1.55;0.95;;;13.10;91.10;;;;;;5012634;28;20451;-74
2021/10/01 00:22:09;;;;;;;1.40;0.88;;;13.10;91.10;;;;;;5011540;28;20032;-74
2021/10/01 00:24:35;;;;;;;0.98;0.75;;;13.00;91.10;;;;;;5012071;28;20030;-74
2021/10/01 00:27:02;;;;;;;1.23;0.57;;;13.10;91.00;;;;;;5026947;28;20113;-77
2021/10/01 00:29:28;;;;;;;3.20;0.90;;;13.10;91.00;;;;;;5012524;28;20493;-75
2021/10/01 00:31:53;;;;;;;2.08;0.95;;;13.10;90.90;;;;;;5012278;28;20028;-77
2021/10/01 00:34:19;;;;;;;0.98;0.52;;;13.20;90.90;;;;;;5011707;28;20036;-77
2021/10/01 00:36:45;;;;;;;2.20;0.80;;;13.20;90.90;;;;;;5012106;28;20028;-76
2021/10/01 00:39:11;;;;;;;0.70;0.65;;;13.20;90.80;;;;;;5011620;28;20073;-74
2021/10/01 00:41:37;;;;;;;2.28;0.80;;;13.30;90.80;;;;;;5010778;28;20041;-76
2021/10/01 00:44:04;;;;;;;0.57;0.47;;;13.20;90.70;;;;;;5026624;28;20032;-75
2021/10/01 00:46:30;;;;;;;1.50;0.88;;;13.30;90.70;;;;;;5011926;28;20030;-76
2021/10/01 00:48:56;;;;;;;1.83;0.80;;;13.30;90.60;;;;;;5012099;28;20030;-76
2021/10/01 00:51:25;;;;;;;1.75;0.70;;;13.20;90.60;;;;;;5010134;28;20030;-76
2021/10/01 00:53:52;;;;;;;1.00;0.50;;;13.30;90.60;;;;;;5012064;28;20018;-75
2021/10/01 00:56:20;;;;;;;4.38;0.77;;;13.20;90.60;;;;;;5026503;28;20068;-76
2021/10/01 00:58:46;;;;;;;0.60;0.60;;;13.30;90.60;;;;;;5029499;28;20079;-76
2021/10/01 01:01:11;;;;;;;1.05;0.70;;;13.30;90.60;;;;;;5015466;28;20105;-76
2021/10/01 01:03:54;;;;;;;1.58;0.60;;;13.30;90.50;;;;;;5016058;28;20026;-75
2021/10/01 01:06:43;;;;;;;2.35;0.80;;;13.30;90.50;;;;;;5015226;28;20378;-75
2021/10/01 01:09:25;;;;;;;3.70;0.88;;;13.30;90.40;;;;;;5015253;28;20026;-75
2021/10/01 01:12:08;;;;;;;0.70;0.50;;;13.30;90.30;;;;;;5015917;28;20085;-75
2021/10/01 01:14:37;;;;;;;1.13;0.70;;;13.30;90.40;;;;;;5015774;28;20033;-75
2021/10/01 01:17:06;;;;;;;1.95;0.73;;;13.30;90.30;;;;;;5015158;28;20029;-75
2021/10/01 01:19:52;;;;;;;2.35;0.60;;;13.30;90.20;;;;;;5015665;28;20129;-75
2021/10/01 01:22:48;;;;;;;1.83;0.73;;;13.30;90.20;;;;;;5013793;28;20454;-75
2021/10/01 01:25:43;;;;;;;1.15;0.65;;;13.30;90.20;;;;;;5015078;28;20157;-75
2021/10/01 01:28:44;;;;;;;0.40;0.40;;;13.30;90.20;;;;;;5027954;28;20038;-75
2021/10/01 01:31:45;;;;;;;2.83;0.80;;;13.30;90.30;;;;;;5013070;28;20049;-75
2021/10/01 01:34:21;;;;;;;2.08;0.80;;;13.30;90.30;;;;;;5014950;28;20033;-75
2021/10/01 01:36:53;;;;;;;4.75;0.95;;;13.20;90.30;;;;;;5015241;28;20463;-75
2021/10/01 01:39:19;;;;;;;1.23;0.70;;;13.20;90.30;;;;;;5013441;28;20030;-74
2021/10/01 01:41:46;;;;;;;2.25;0.63;;;13.10;90.40;;;;;;5014771;28;20054;-75
2021/10/01 01:44:12;;;;;;;3.85;0.90;;;13.10;90.30;;;;;;5014589;28;20111;-74
2021/10/01 01:46:40;;;;;;;0.98;0.60;;;13.10;90.30;;;;;;5030501;28;20026;-75
2021/10/01 01:49:09;;;;;;;1.60;0.70;;;13.10;90.30;;;;;;5014254;28;20105;-75
2021/10/01 01:51:35;;;;;;;2.63;0.75;;;13.10;90.30;;;;;;5014786;28;20110;-76
2021/10/01 01:54:01;;;;;;;0.95;0.57;;;13.10;90.30;;;;;;5014998;28;20465;-75
2021/10/01 01:56:30;;;;;;;5.15;0.70;;;13.10;90.30;;;;;;5014434;28;20486;-75
2021/10/01 01:58:57;;;;;;;1.15;0.65;;;13.10;90.20;;;;;;5015021;28;20102;-75
2021/10/01 02:01:23;;;;;;;1.17;0.63;;;13.20;90.20;;;;;;5014565;28;20530;-75
2021/10/01 02:03:49;;;;;;;2.58;0.85;;;13.20;90.20;;;;;;5014479;28;20034;-76
2021/10/01 02:06:16;;;;;;;2.80;0.90;;;13.20;90.10;;;;;;5029433;28;20076;-75
2021/10/01 02:08:42;;;;;;;0.35;0.32;;;13.20;90.10;;;;;;5014768;28;20462;-75
2021/10/01 02:11:09;;;;;;;2.45;0.77;;;13.30;90.10;;;;;;5013418;28;20026;-75
2021/10/01 02:13:37;;;;;;;1.88;0.90;;;13.30;90.20;;;;;;5014659;28;20063;-75
2021/10/01 02:16:03;;;;;;;1.55;0.63;;;13.30;90.10;;;;;;5029784;28;20025;-75
2021/10/01 02:18:32;;;;;;;2.50;0.85;;;13.30;90.20;;;;;;5029183;28;20022;-75
2021/10/01 02:20:59;;;;;;;1.58;0.43;;;13.30;90.10;;;;;;5014584;28;20079;-75
2021/10/01 02:23:24;;;;;;;2.47;0.70;;;13.40;90.10;;;;;;5013858;28;20028;-75
2021/10/01 02:28:42;;;;;;;2.20;0.60;;;13.30;90.10;;;;;;5014640;28;20102;-75
2021/10/01 02:31:17;;;;;;;3.47;0.70;;;13.40;90.10;;;;;;5013814;28;20050;-75
2021/10/01 02:33:45;;;;;;;1.25;0.45;;;13.40;90.20;;;;;;5014363;28;20029;-75
2021/10/01 02:36:12;;;;;;;1.52;0.70;;;13.40;90.00;;;;;;5013635;28;20030;-75
2021/10/01 02:38:38;;;;;;;1.88;0.80;;;13.30;90.00;;;;;;5014439;28;20084;-75
2021/10/01 02:41:04;;;;;;;1.83;0.82;;;13.30;90.00;;;;;;5029082;28;20419;-76
2021/10/01 02:43:31;;;;;;;2.88;1.00;;;13.40;90.00;;;;;;5013338;28;20049;-75
2021/10/01 02:45:57;;;;;;;1.30;0.60;;;13.40;90.00;;;;;;5013992;28;20084;-75
2021/10/01 02:48:22;;;;;;;1.58;0.75;;;13.40;90.00;;;;;;5013005;28;20025;-75
2021/10/01 02:50:56;;;;;;;1.65;0.60;;;13.40;90.00;;;;;;5013968;28;20033;-76
2021/10/01 02:53:30;;;;;;;0.90;0.57;;;13.40;90.00;;;;;;5013349;28;20037;-76
2021/10/01 02:56:04;;;;;;;1.58;0.60;;;13.30;90.00;;;;;;5013888;28;20086;-75
2021/10/01 02:58:35;;;;;;;0.80;0.52;;;13.40;90.00;;;;;;5013020;28;20474;-76
2021/10/01 03:01:05;;;;;;;1.45;0.68;;;13.30;90.00;;;;;;5013445;28;20332;-75
2021/10/01 03:03:36;;;;;;;0.55;0.55;;;13.40;90.10;;;;;;5011698;28;20117;-75
2021/10/01 03:06:03;;;;;;;0.85;0.65;;;13.40;89.90;;;;;;5013394;28;20339;-75
2021/10/01 03:08:30;;;;;;;2.50;0.70;;;13.40;90.00;;;;;;5012656;28;20036;-75
2021/10/01 03:10:57;;;;;;;0.55;0.40;;;13.40;90.00;;;;;;5028809;28;20022;-75
2021/10/01 03:13:25;;;;;;;2.67;0.70;;;13.40;90.00;;;;;;5028146;28;20030;-74
2021/10/01 03:15:59;;;;;;;0.77;0.60;;;13.40;90.00;;;;;;5013604;28;20029;-76
2021/10/01 03:18:26;;;;;;;1.85;0.80;;;13.40;90.00;;;;;;5013184;28;20471;-77
2021/10/01 03:20:53;;;;;;;2.35;0.80;;;13.40;90.00;;;;;;5012873;28;20026;-76
2021/10/01 03:23:21;;;;;;;3.47;0.90;;;13.40;90.00;;;;;;5011962;28;20026;-75
2021/10/01 03:25:48;;;;;;;3.15;0.98;;;13.40;90.00;;;;;;5013255;28;20030;-75
2021/10/01 03:28:16;;;;;;;1.50;0.52;;;13.40;90.00;;;;;;5012376;28;20026;-75
2021/10/01 03:30:45;;;;;;;3.85;0.82;;;13.40;90.10;;;;;;5013839;28;20034;-76
2021/10/01 03:33:11;;;;;;;1.00;0.77;;;13.40;90.10;;;;;;5013356;28;20036;-76
2021/10/01 03:35:39;;;;;;;1.95;0.52;;;13.40;90.20;;;;;;5028592;28;20193;-74
2021/10/01 03:38:05;;;;;;;4.70;1.05;;;13.30;90.20;;;;;;5012844;28;20092;-75
2021/10/01 03:40:32;;;;;;;2.70;0.70;;;13.40;90.20;;;;;;5027154;28;20895;-74
2021/10/01 03:42:59;;;;;;;0.88;0.43;;;13.30;90.10;;;;;;5012760;28;20497;-75
2021/10/01 03:45:25;;;;;;;0.85;0.52;;;13.40;90.10;;;;;;5012386;28;20046;-75
2021/10/01 03:47:52;;;;;;;2.00;0.73;;;13.40;90.00;;;;;;5012990;28;20513;-75
2021/10/01 03:50:18;;;;;;;3.10;0.70;;;13.40;90.00;;;;;;5012361;28;20030;-74
2021/10/01 03:52:44;;;;;;;0.70;0.57;;;13.40;89.90;;;;;;5011510;28;20080;-76
2021/10/01 03:55:12;;;;;;;2.17;0.80;;;13.50;89.80;;;;;;5027984;28;20120;-75
2021/10/01 03:57:38;;;;;;;1.35;0.70;;;13.50;89.80;;;;;;5012779;28;20022;-75
2021/10/01 04:00:05;;;;;;;0.90;0.68;;;13.50;89.60;;;;;;5012829;28;20386;-76
2021/10/01 04:02:31;;;;;;;2.45;0.63;;;13.50;89.60;;;;;;5012010;28;20080;-75
2021/10/01 04:04:57;;;;;;;1.73;0.80;;;13.50;89.60;;;;;;5012749;28;20034;-75
2021/10/01 04:07:23;;;;;;;2.13;0.82;;;13.40;89.80;;;;;;5011798;28;20061;-75
2021/10/01 04:09:48;;;;;;;1.88;0.60;;;13.40;89.90;;;;;;5012900;28;20422;-75
2021/10/01 04:12:14;;;;;;;3.03;0.65;;;13.40;90.30;;;;;;5012219;28;20112;-75
2021/10/01 04:14:40;;;;;;;0.70;0.45;;;13.30;90.10;;;;;;5012518;28;20072;-75
2021/10/01 04:17:06;;;;;;;2.15;0.73;;;13.20;90.10;;;;;;5012385;28;20092;-75
2021/10/01 04:19:31;;;;;;;1.75;0.70;;;13.20;90.20;;;;;;5011792;28;20034;-75
2021/10/01 04:21:57;;;;;;;1.42;0.60;;;13.30;90.20;;;;;;5011030;28;20109;-75
2021/10/01 04:24:23;;;;;;;1.70;0.70;;;13.30;90.20;;;;;;5011675;28;20030;-76
2021/10/01 04:26:48;;;;;;;2.17;0.60;;;13.30;90.10;;;;;;5022334;28;20077;-75
2021/10/01 04:29:14;;;;;;;1.83;0.70;;;13.30;90.10;;;;;;5026245;28;20053;-75
2021/10/01 04:31:40;;;;;;;4.22;0.70;;;13.30;90.10;;;;;;5024514;28;20040;-76
2021/10/01 04:34:07;;;;;;;0.73;0.50;;;13.30;90.10;;;;;;5025600;28;20032;-76
2021/10/01 04:36:33;;;;;;;1.10;0.57;;;13.30;90.10;;;;;;5026058;28;20437;-76
2021/10/01 04:39:00;;;;;;;0.68;0.57;;;13.20;90.20;;;;;;5026748;28;20072;-74
2021/10/01 04:41:25;;;;;;;2.08;0.93;;;13.20;90.20;;;;;;5028088;28;20052;-75
2021/10/01 04:43:51;;;;;;;1.90;0.70;;;13.10;90.20;;;;;;5028636;28;20034;-76
2021/10/01 04:46:17;;;;;;;0.82;0.57;;;13.00;90.30;;;;;;5020866;28;20026;-76
2021/10/01 04:48:43;;;;;;;0.82;0.47;;;13.00;90.40;;;;;;5021246;28;20057;-76
2021/10/01 04:51:08;;;;;;;0.95;0.63;;;13.00;90.40;;;;;;5026751;28;20088;-76
2021/10/01 04:53:34;;;;;;;2.47;1.13;;;12.90;90.40;;;;;;5021644;28;20018;-76
2021/10/01 04:56:00;;;;;;;2.03;0.50;;;12.90;90.50;;;;;;5020782;28;20026;-76
2021/10/01 04:58:25;;;;;;;2.17;0.77;;;12.90;90.50;;;;;;5023995;28;20368;-76
2021/10/01 05:00:51;;;;;;;3.13;0.60;;;12.90;90.60;;;;;;5041263;28;20409;-76
2021/10/01 05:03:16;;;;;;;3.03;1.00;;;12.90;90.60;;;;;;5030860;28;20401;-76
2021/10/01 05:05:42;;;;;;;1.08;0.60;;;12.90;90.60;;;;;;5029096;28;20017;-76
2021/10/01 05:08:08;;;;;;;1.02;0.75;;;12.90;90.50;;;;;;5029926;28;20501;-76
2021/10/01 05:10:33;;;;;;;0.82;0.60;;;12.90;90.50;;;;;;5007238;28;20030;-75
2021/10/01 05:12:59;;;;;;;2.50;0.95;;;12.90;90.50;;;;;;5008774;28;20030;-75
2021/10/01 05:15:25;;;;;;;2.83;0.93;;;12.90;90.50;;;;;;5008451;28;20025;-75
2021/10/01 05:17:52;;;;;;;2.05;0.75;;;12.90;90.50;;;;;;5017752;28;20049;-77
2021/10/01 05:20:17;;;;;;;1.67;0.60;;;12.90;90.50;;;;;;5011778;28;20113;-75
2021/10/01 05:22:43;;;;;;;2.10;0.75;;;12.90;90.50;;;;;;5008418;28;20553;-75
2021/10/01 05:25:09;;;;;;;1.00;0.57;;;12.80;90.50;;;;;;5025414;28;20037;-74
2021/10/01 05:27:35;;;;;;;1.63;0.65;;;12.80;90.80;;;;;;5033838;28;20122;-76
2021/10/01 05:30:02;;;;;;;4.35;0.80;;;12.90;90.60;;;;;;5017969;28;20148;-74
2021/10/01 05:32:28;;;;;;;0.60;0.57;;;12.80;90.50;;;;;;5019183;28;20025;-74
2021/10/01 05:34:53;;;;;;;1.17;0.80;;;12.90;90.50;;;;;;5026754;28;20033;-75
2021/10/01 05:37:20;;;;;;;1.63;0.60;;;12.80;90.50;;;;;;5031325;28;20450;-76
2021/10/01 05:39:46;;;;;;;0.63;0.60;;;12.90;90.50;;;;;;5031362;28;20080;-74
2021/10/01 05:42:12;;;;;;;2.15;0.70;;;12.90;90.50;;;;;;5031279;28;20463;-75
2021/10/01 05:44:38;;;;;;;1.55;0.60;;;12.90;90.50;;;;;;5031144;28;20461;-75
2021/10/01 05:47:06;;;;;;;3.40;0.60;;;12.90;90.40;;;;;;5034899;28;20049;-74
2021/10/01 05:49:40;;;;;;;2.38;0.70;;;12.90;90.40;;;;;;5034185;28;20051;-75
2021/10/01 05:54:47;;;;;;;1.63;0.70;;;12.90;90.30;;;;;;5034613;28;20469;-75
2021/10/01 05:57:13;;;;;;;2.78;0.70;;;12.90;90.20;;;;;;5034607;28;20021;-74
2021/10/01 05:59:40;;;;;;;1.33;0.60;;;12.90;90.20;;;;;;5033703;28;20033;-74
2021/10/01 06:02:11;;;;;;;4.88;0.90;;;13.00;90.20;;;;;;5033180;28;20047;-74
2021/10/01 06:04:37;;;;;;;;;;;12.90;90.20;;;;;;5034297;28;20068;-75
2021/10/01 06:07:03;;;;;;;1.73;0.50;;;12.90;90.10;;;;;;5049798;28;20300;-75
2021/10/01 06:09:28;;;;;;;1.58;0.60;;;12.90;90.10;;;;;;5033809;28;20056;-75
2021/10/01 06:11:54;;;;;;;2.05;0.70;;;12.90;90.10;;;;;;5034764;28;20096;-75
2021/10/01 06:14:22;;;;;;;2.17;0.98;;;12.90;90.10;;;;;;5034343;28;20442;-75
2021/10/01 06:16:49;;;;;;;1.90;0.85;;;13.00;90.10;;;;;;5034444;28;20017;-75
2021/10/01 06:19:15;;;;;;;1.38;0.68;;;13.00;90.10;;;;;;5033016;28;20075;-75
2021/10/01 06:21:40;;;;;;;1.23;0.93;;;13.00;90.10;;;;;;5033546;28;20021;-75
2021/10/01 06:24:06;;;;;;;2.40;0.80;;;13.00;90.00;;;;;;5034185;28;20084;-75
2021/10/01 06:26:32;;;;;;;3.13;0.90;;;13.10;90.00;;;;;;5048801;28;20171;-75
2021/10/01 06:28:58;;;;;;;1.27;0.63;;;13.10;89.90;;;;;;5033757;28;20022;-75
2021/10/01 06:31:23;;;;;;;2.30;0.57;;;13.20;89.80;;;;;;5048957;28;20048;-75
2021/10/01 06:33:49;;;;;;;1.85;0.63;;;13.30;89.80;;;;;;5034322;28;20449;-75
2021/10/01 06:36:19;;;;;;;0.40;0.40;;;13.30;89.40;;;;;;5032819;28;20022;-75
2021/10/01 06:38:45;;;;;;;1.38;0.73;;;13.30;89.50;;;;;;5048621;28;20056;-75
2021/10/01 06:41:12;;;;;;;2.22;0.70;;;13.30;89.60;;;;;;5048794;28;20061;-75
2021/10/01 06:43:38;;;;;;;1.00;0.60;;;13.30;89.60;;;;;;5033240;28;20024;-75
2021/10/01 06:46:08;;;;;;;2.25;0.80;;;13.30;89.40;;;;;;5033756;28;20064;-76
2021/10/01 08:20:49;;;;;;;4.53;0.82;;;14.50;85.10;;;;;;5031563;28;20102;-75
2021/10/01 08:23:15;;;;;;;4.00;0.77;;;14.50;85.00;;;;;;5032037;28;20030;-75
2021/10/01 08:25:42;;;;;;;4.55;0.95;;;14.50;85.20;;;;;;5031164;28;20053;-75
2021/10/01 08:28:09;;;;;;;0.75;0.57;;;14.50;85.30;;;;;;5030678;28;20433;-75
2021/10/01 08:30:35;;;;;;;0.98;0.60;;;14.60;85.40;;;;;;5029925;28;20014;-75
2021/10/01 08:33:01;;;;;;;1.15;0.70;;;14.60;85.50;;;;;;5047056;28;20017;-75
2021/10/01 08:35:26;;;;;;;1.13;0.50;;;14.70;85.60;;;;;;5032146;28;20037;-75
2021/10/01 08:37:54;;;;;;;2.05;0.60;;;14.80;85.40;;;;;;5031016;28;20075;-75
2021/10/01 08:40:21;;;;;;;3.45;1.00;;;14.80;85.10;;;;;;5030298;28;20124;-75
2021/10/01 08:42:48;;;;;;;2.15;0.77;;;14.80;85.00;;;;;;5031178;28;20052;-75
2021/10/01 08:45:16;;;;;;;2.63;1.00;;;14.80;85.20;;;;;;5031926;28;20021;-75
2021/10/01 08:47:42;;;;;;;2.63;0.93;;;14.70;85.50;;;;;;5030887;28;20022;-75
2021/10/01 08:50:12;;;;;;;2.83;0.60;;;14.70;85.70;;;;;;5031771;28;20029;-75
2021/10/01 08:52:38;;;;;;;2.00;0.70;;;14.70;86.30;;;;;;5031130;28;20032;-75
2021/10/01 08:55:06;;;;;;;1.52;0.68;;;14.60;86.50;;;;;;5031742;28;20083;-75
2021/10/01 08:57:32;;;;;;;0.90;0.55;;;14.70;86.90;;;;;;5046856;28;20021;-74
2021/10/01 08:59:59;;;;;;;1.17;0.80;;;14.70;87.10;;;;;;5029795;28;20018;-75
2021/10/01 09:02:25;;;;;;;1.60;0.70;;;14.70;87.40;;;;;;5031776;28;20018;-76
2021/10/01 09:04:55;;;;;;;1.83;0.82;;;14.70;87.60;;;;;;5030862;28;20033;-76
2021/10/01 09:07:23;;;;;;;1.35;0.63;;;14.70;87.90;;;;;;5047060;28;20057;-75
2021/10/01 09:09:53;;;;;;;0.57;0.57;;;14.60;88.20;;;;;;5029755;28;20025;-75
2021/10/01 09:12:21;;;;;;;0.63;0.60;;;14.60;88.50;;;;;;5031698;28;20064;-75
2021/10/01 09:14:56;;;;;;;1.80;0.95;;;14.60;88.70;;;;;;5031000;28;20048;-76
2021/10/01 09:17:28;;;;;;;1.65;0.93;;;14.60;88.90;;;;;;5031759;28;20021;-76
2021/10/01 09:19:55;;;;;;;1.60;0.85;;;14.60;88.90;;;;;;5033167;28;20327;-75
2021/10/01 09:22:27;;;;;;;4.65;0.75;;;14.70;89.00;;;;;;5034771;28;20044;-75
2021/10/01 09:25:07;;;;;;;1.83;0.88;;;14.70;88.80;;;;;;5033267;28;20061;-74
2021/10/01 09:27:39;;;;;;;3.33;1.33;;;14.80;88.60;;;;;;5035452;28;20033;-74
2021/10/01 09:30:06;;;;;;;4.47;1.17;;;14.90;88.50;;;;;;5034901;28;20342;-74
2021/10/01 09:32:33;;;;;;;2.63;0.85;;;14.90;88.30;;;;;;5035163;28;20453;-75
2021/10/01 09:35:08;;;;;;;3.53;1.05;;;14.90;88.20;;;;;;5034463;28;20168;-74
2021/10/01 09:37:33;;;;;;;1.42;0.88;;;14.80;88.60;;;;;;5034891;28;20018;-75
2021/10/01 09:40:04;;;;;;;2.42;1.00;;;14.80;89.10;;;;;;5032945;28;20048;-76
2021/10/01 09:42:43;;;;;;;3.53;1.05;;;14.80;89.40;;;;;;5035027;28;20056;-75
2021/10/01 09:45:11;;;;;;;2.45;1.00;;;14.80;89.70;;;;;;5035075;28;20437;-76
2021/10/01 09:47:43;;;;;;;1.98;0.80;;;14.80;89.80;;;;;;5035191;28;20083;-76
2021/10/01 09:50:20;;;;;;;3.20;0.90;;;14.80;90.00;;;;;;5050300;28;20025;-76
2021/10/01 09:52:54;;;;;;;2.60;0.90;;;14.80;90.10;;;;;;5034632;28;20108;-76
2021/10/01 09:55:35;;;;;;;1.58;0.80;;;14.90;90.20;;;;;;5034584;28;20096;-76
2021/10/01 09:58:11;;;;;;;2.03;1.15;;;14.90;90.20;;;;;;5034205;28;20060;-75
2021/10/01 10:00:46;;;;;;;1.85;1.17;;;15.00;90.20;;;;;;5034786;28;20026;-76
2021/10/01 10:03:23;;;;;;;2.50;0.80;;;15.00;90.20;;;;;;5033593;28;20026;-76
2021/10/01 10:06:05;;;;;;;3.38;0.90;;;15.00;90.20;;;;;;5033753;28;20029;-76
2021/10/01 10:08:35;;;;;;;2.47;0.80;;;15.00;90.30;;;;;;5034580;28;20021;-76
2021/10/01 10:11:15;;;;;;;1.37;1.00;;;15.00;90.40;;;;;;5049408;28;20024;-76
2021/10/01 10:13:50;;;;;;;1.85;0.82;;;15.00;90.50;;;;;;5033513;28;20342;-74
2021/10/01 10:16:22;;;;;;;1.42;0.65;;;15.10;90.70;;;;;;5049855;28;20014;-75
2021/10/01 10:19:00;;;;;;;1.90;0.85;;;15.10;90.80;;;;;;5033650;28;20033;-74
2021/10/01 10:21:27;;;;;;;2.65;1.00;;;15.20;90.80;;;;;;5049632;28;20022;-75
2021/10/01 10:23:53;;;;;;;3.00;1.05;;;15.30;90.70;;;;;;5033258;28;20022;-74
2021/10/01 10:26:20;;;;;;;2.22;1.15;;;15.40;90.60;;;;;;5049439;28;20022;-74
2021/10/01 10:28:47;;;;;;;3.10;1.00;;;15.50;90.70;;;;;;5048772;28;20020;-74
2021/10/01 10:31:16;;;;;;;1.23;0.95;;;15.60;90.70;;;;;;5033416;28;20021;-74
2021/10/01 10:33:45;;;;;;;2.75;0.90;;;15.70;90.60;;;;;;5048668;28;20081;-75
2021/10/01 10:36:41;;;;;;;3.72;0.85;;;15.70;90.50;;;;;;5034054;28;20033;-75
2021/10/01 10:39:14;;;;;;;2.00;0.93;;;15.80;90.40;;;;;;5049367;28;20068;-75
2021/10/01 10:42:00;;;;;;;3.15;0.90;;;15.90;90.00;;;;;;5034012;28;20049;-75
2021/10/01 10:44:50;;;;;;;2.45;0.70;;;16.00;89.90;;;;;;5032834;28;20080;-75
2021/10/01 10:47:52;;;;;;;2.38;1.05;;;16.00;89.50;;;;;;5034041;28;20029;-75
2021/10/01 10:50:27;;;;;;;1.67;1.15;;;16.00;89.30;;;;;;5048963;28;20014;-75
2021/10/01 10:53:08;;;;;;;3.70;0.88;;;16.00;88.80;;;;;;5033054;28;20018;-74
2021/10/01 10:55:50;;;;;;;4.03;0.85;;;16.00;88.30;;;;;;5033777;28;20013;-74
2021/10/01 10:58:25;;;;;;;2.70;0.95;;;16.10;88.40;;;;;;5032342;28;20152;-75
2021/10/01 11:00:56;;;;;;;2.42;0.98;;;16.10;87.90;;;;;;5031542;28;20515;-76
2021/10/01 11:03:24;;;;;;;1.40;0.75;;;16.20;87.60;;;;;;5032147;28;20024;-75
2021/10/01 11:06:08;;;;;;;1.83;0.80;;;16.30;87.60;;;;;;5032790;28;20014;-75
2021/10/01 11:08:42;;;;;;;1.40;0.57;;;16.30;87.30;;;;;;5033345;28;20032;-75
2021/10/01 11:11:33;;;;;;;1.50;0.70;;;16.40;87.30;;;;;;5032269;28;20112;-75
2021/10/01 11:14:19;;;;;;;2.97;0.90;;;16.40;87.20;;;;;;5031479;28;20025;-75
2021/10/01 11:16:58;;;;;;;0.73;0.65;;;16.50;87.00;;;;;;5031427;28;20071;-75
2021/10/01 11:19:39;;;;;;;3.60;0.90;;;16.50;86.50;;;;;;5032172;28;20025;-75
2021/10/01 11:22:43;;;;;;;1.98;0.80;;;16.50;86.30;;;;;;5032592;28;20010;-75
2021/10/01 11:25:17;;;;;;;0.90;0.70;;;16.50;86.00;;;;;;5031226;28;20095;-75
2021/10/01 11:27:58;;;;;;;1.95;0.63;;;16.60;85.90;;;;;;5031722;28;20020;-76
2021/10/01 11:30:26;;;;;;;1.75;0.75;;;16.60;86.00;;;;;;5033091;28;20021;-76
2021/10/01 11:32:52;;;;;;;1.83;0.85;;;16.60;85.80;;;;;;5032370;28;20099;-76
2021/10/01 11:35:20;;;;;;;2.83;0.77;;;16.60;85.90;;;;;;5047898;28;20009;-75
2021/10/01 11:37:49;;;;;;;1.52;0.73;;;16.60;86.00;;;;;;5047406;28;20341;-75
2021/10/01 11:40:26;;;;;;;1.15;0.60;;;16.70;86.30;;;;;;5047805;28;20347;-75
2021/10/01 11:42:55;;;;;;;3.50;0.80;;;16.80;86.00;;;;;;5046469;28;20021;-75
2021/10/01 11:45:32;;;;;;;2.90;0.80;;;16.70;85.20;;;;;;5032718;28;20025;-75
2021/10/01 11:48:02;;;;;;;1.38;0.73;;;16.70;85.50;;;;;;5032133;28;20021;-76
2021/10/01 11:50:32;;;;;;;7.50;1.53;;;16.70;85.50;;;;;;5032663;28;20021;-76
2021/10/01 11:52:58;;;;;;;1.95;0.63;;;16.60;85.60;;;;;;5031948;28;20273;-74
2021/10/01 11:55:32;;;;;;;1.13;0.73;;;16.60;85.70;;;;;;5047973;28;20121;-75
2021/10/01 11:57:58;;;;;;;1.27;0.60;;;16.60;86.10;;;;;;5031984;28;20018;-74
2021/10/01 12:00:24;;;;;;;1.25;0.60;;;16.50;86.30;;;;;;5032688;28;20066;-75
2021/10/01 12:02:54;;;;;;;1.92;1.00;;;16.60;86.50;;;;;;5031488;28;20146;-75
2021/10/01 12:05:36;;;;;;;2.10;0.45;;;16.60;86.30;;;;;;5032434;28;20021;-75
2021/10/01 12:08:06;;;;;;;4.72;0.80;;;16.60;86.40;;;;;;5031724;28;20025;-76
2021/10/01 12:10:39;;;;;;;2.65;0.68;;;16.60;86.40;;;;;;5032721;28;20036;-77
2021/10/01 12:13:07;;;;;;;2.92;0.98;;;16.60;86.60;;;;;;5030313;28;20413;-75
2021/10/01 12:15:55;;;;;;;3.40;0.70;;;16.60;86.60;;;;;;5025377;28;20053;-75
2021/10/01 12:18:31;;;;;;;3.90;1.08;;;16.60;86.80;;;;;;5024211;28;20029;-75
2021/10/01 12:20:59;;;;;;;1.05;0.68;;;16.70;86.50;;;;;;5022189;28;20526;-75
2021/10/01 12:23:46;;;;;;;1.73;0.70;;;16.70;86.40;;;;;;5013453;28;20061;-75
2021/10/01 12:26:14;;;;;;;1.65;0.70;;;16.80;86.50;;;;;;5010697;28;20025;-76
2021/10/01 12:28:40;;;;;;;2.85;0.80;;;16.80;86.20;;;;;;5011769;28;20530;-76
2021/10/01 12:31:06;;;;;;;2.42;0.90;;;16.80;86.20;;;;;;5026744;28;20026;-76
2021/10/01 12:33:32;;;;;;;1.60;0.90;;;16.90;86.20;;;;;;5012117;28;20054;-76
2021/10/01 12:35:58;;;;;;;3.15;0.90;;;16.90;86.00;;;;;;5011281;28;20026;-76
2021/10/01 12:38:24;;;;;;;2.88;0.95;;;17.00;85.90;;;;;;5010828;28;20088;-76
2021/10/01 12:41:10;;;;;;;1.38;0.85;;;16.90;86.00;;;;;;5011494;28;20050;-76
2021/10/01 12:43:44;;;;;;;2.15;0.70;;;16.90;86.10;;;;;;5026385;28;20057;-76
2021/10/01 12:46:10;;;;;;;2.60;0.70;;;16.90;85.90;;;;;;5011430;28;20113;-76
2021/10/01 12:48:36;;;;;;;1.50;0.80;;;16.80;85.50;;;;;;5012208;28;20156;-77
2021/10/01 12:51:02;;;;;;;2.50;0.90;;;16.90;85.40;;;;;;5026544;28;20108;-77
2021/10/01 12:53:29;;;;;;;4.28;1.25;;;17.00;85.10;;;;;;5011964;28;20466;-76
2021/10/01 12:55:54;;;;;;;1.48;0.90;;;17.00;85.20;;;;;;5014119;28;20022;-77
2021/10/01 12:58:20;;;;;;;3.53;1.02;;;17.00;84.00;;;;;;5031319;28;20105;-77
2021/10/01 13:00:46;;;;;;;1.92;1.10;;;17.10;83.70;;;;;;5015944;28;20029;-77
2021/10/01 13:03:12;;;;;;;0.90;0.50;;;17.10;83.20;;;;;;5014078;28;20060;-77
2021/10/01 13:05:40;;;;;;;3.85;0.88;;;17.20;82.50;;;;;;5015984;28;20069;-77
2021/10/01 13:08:08;;;;;;;1.48;0.65;;;17.30;81.70;;;;;;5016401;28;20079;-78
2021/10/01 13:10:50;;;;;;;1.33;0.60;;;17.30;81.60;;;;;;5016523;28;20022;-78
2021/10/01 13:13:28;;;;;;;0.85;0.60;;;17.40;81.30;;;;;;5031247;28;20454;-76
2021/10/01 13:15:56;;;;;;;2.70;0.77;;;17.40;81.30;;;;;;5013930;28;20459;-76
2021/10/01 13:18:38;;;;;;;1.60;0.60;;;17.40;81.20;;;;;;5015642;28;20018;-76
2021/10/01 13:21:19;;;;;;;2.78;1.20;;;17.40;80.40;;;;;;5015146;28;20022;-76
2021/10/01 13:23:48;;;;;;;3.78;0.75;;;17.40;80.30;;;;;;5015504;28;20034;-77
2021/10/01 13:26:15;;;;;;;3.40;0.90;;;17.30;80.40;;;;;;5014916;28;20029;-76
2021/10/01 13:28:43;;;;;;;3.70;0.77;;;17.30;80.50;;;;;;5015810;28;20053;-76
2021/10/01 13:31:09;;;;;;;1.02;0.65;;;17.40;80.70;;;;;;5029737;28;20022;-76
2021/10/01 13:33:35;;;;;;;2.72;0.57;;;17.30;80.70;;;;;;5014320;28;20033;-76
2021/10/01 13:36:01;;;;;;;1.50;0.60;;;17.40;80.80;;;;;;5014706;28;20022;-75
2021/10/01 13:38:34;;;;;;;0.50;0.40;;;17.30;80.80;;;;;;5030300;28;20104;-75
2021/10/01 13:41:01;;;;;;;1.35;0.70;;;17.30;81.10;;;;;;5015130;28;20076;-76
2021/10/01 13:43:28;;;;;;;1.77;0.82;;;17.30;81.00;;;;;;5015250;28;20026;-76
2021/10/01 13:45:54;;;;;;;0.85;0.45;;;17.30;81.20;;;;;;5014980;28;20077;-75
2021/10/01 13:48:19;;;;;;;3.20;1.02;;;17.20;81.00;;;;;;5014919;28;20367;-76
2021/10/01 13:50:45;;;;;;;1.73;0.52;;;17.30;81.20;;;;;;5014862;28;20029;-76
2021/10/01 13:53:11;;;;;;;1.98;0.82;;;17.30;80.50;;;;;;5014570;28;20022;-76
2021/10/01 13:55:37;;;;;;;1.65;0.77;;;17.40;80.70;;;;;;5015408;28;20357;-76
2021/10/01 13:58:03;;;;;;;1.77;0.90;;;17.40;80.20;;;;;;5029503;28;20018;-75
2021/10/01 14:00:29;;;;;;;1.98;0.80;;;17.40;79.80;;;;;;5014955;28;20097;-76
2021/10/01 14:02:54;;;;;;;1.48;0.70;;;17.40;78.80;;;;;;5029581;28;20080;-76
2021/10/01 14:05:20;;;;;;;1.48;0.65;;;17.50;79.00;;;;;;5014069;28;20157;-77
2021/10/01 14:07:46;;;;;;;2.22;0.65;;;17.50;78.70;;;;;;5014758;28;20080;-76
2021/10/01 14:10:24;;;;;;;2.83;0.80;;;17.60;78.70;;;;;;5014460;28;20022;-75
2021/10/01 14:12:50;;;;;;;1.92;0.90;;;17.50;78.20;;;;;;5014809;28;20022;-75
2021/10/01 14:15:17;;;;;;;2.42;0.70;;;17.50;78.80;;;;;;5014100;28;20532;-75
2021/10/01 14:17:43;;;;;;;3.40;0.90;;;17.50;78.20;;;;;;5029802;28;20054;-76
2021/10/01 14:20:10;;;;;;;2.58;0.70;;;17.50;78.20;;;;;;5029033;28;20250;-76
2021/10/01 14:22:37;;;;;;;2.20;0.70;;;17.50;78.30;;;;;;5047490;28;20103;-77
2021/10/01 14:25:05;;;;;;;1.77;0.50;;;17.50;78.40;;;;;;5033505;28;20036;-76
2021/10/01 14:27:31;;;;;;;5.95;0.90;;;17.50;78.10;;;;;;5033932;28;20025;-76
2021/10/01 14:29:58;;;;;;;2.58;1.05;;;17.50;77.50;;;;;;5033768;28;20033;-76
2021/10/01 14:32:26;;;;;;;1.17;0.70;;;17.50;77.60;;;;;;5033970;28;20025;-77
2021/10/01 14:34:52;;;;;;;1.17;0.75;;;17.50;77.30;;;;;;5033899;28;20029;-76
2021/10/01 14:37:18;;;;;;;1.75;0.60;;;17.50;76.50;;;;;;5032046;28;20029;-76